createdAt,value
2022-09-26T00:01:36.411Z,2.72
2022-09-26T00:04:08.417Z,1.85
2022-09-26T00:06:35.986Z,3.20
2022-09-26T00:09:03.565Z,7.18
2022-09-26T00:11:34.261Z,6.32
2022-09-26T00:14:06.063Z,1.63
2022-09-26T00:16:33.899Z,4.72
2022-09-26T00:19:02.250Z,2.38
2022-09-26T00:21:30.522Z,5.28
2022-09-26T00:24:00.965Z,4.13
2022-09-26T00:26:31.237Z,7.53
2022-09-26T00:28:59.603Z,2.78
2022-09-26T00:31:35.334Z,7.13
2022-09-26T00:34:03.524Z,4.85
2022-09-26T00:36:38.004Z,7.45
2022-09-26T00:39:10.052Z,3.90
2022-09-26T00:41:38.146Z,7.88
2022-09-26T00:44:34.900Z,6.30
2022-09-26T00:47:03.249Z,4.93
2022-09-26T00:49:37.545Z,2.88
2022-09-26T00:52:11.682Z,3.85
2022-09-26T00:54:45.067Z,3.10
2022-09-26T00:57:20.524Z,4.55
2022-09-26T00:59:54.423Z,5.00
2022-09-26T01:02:24.956Z,3.60
2022-09-26T01:04:53.508Z,2.78
2022-09-26T01:07:25.350Z,4.18
2022-09-26T01:09:54.137Z,3.95
2022-09-26T01:12:22.331Z,5.80
2022-09-26T01:14:54.909Z,2.67
2022-09-26T01:17:24.110Z,5.13
2022-09-26T01:20:16.249Z,5.05
2022-09-26T01:23:14.557Z,3.63
2022-09-26T01:26:01.023Z,4.43
2022-09-26T01:28:43.390Z,3.08
2022-09-26T01:31:11.919Z,7.88
2022-09-26T01:34:02.993Z,4.55
2022-09-26T01:37:04.157Z,8.93
2022-09-26T01:39:57.407Z,4.80
2022-09-26T01:42:47.876Z,7.55
2022-09-26T01:45:20.634Z,6.15
2022-09-26T01:47:56.725Z,4.72
2022-09-26T01:50:44.682Z,3.90
2022-09-26T01:53:30.307Z,6.45
2022-09-26T01:56:03.953Z,4.18
2022-09-26T01:58:45.826Z,2.88
2022-09-26T02:01:16.478Z,4.95
2022-09-26T02:03:51.372Z,8.32
2022-09-26T02:06:29.506Z,5.38
2022-09-26T02:09:02.496Z,4.95
2022-09-26T02:11:31.016Z,5.93
2022-09-26T02:14:14.635Z,5.03
2022-09-26T02:16:50.775Z,3.50
2022-09-26T02:19:28.942Z,4.13
2022-09-26T02:21:58.645Z,3.03
2022-09-26T02:24:26.390Z,4.90
2022-09-26T02:26:54.857Z,6.28
2022-09-26T02:29:22.550Z,6.80
2022-09-26T02:31:57.573Z,2.38
2022-09-26T02:34:26.493Z,5.40
2022-09-26T02:36:57.322Z,7.70
2022-09-26T02:39:25.786Z,7.65
2022-09-26T02:42:22.213Z,3.83
2022-09-26T02:45:15.705Z,6.03
2022-09-26T02:48:01.501Z,6.93
2022-09-26T02:51:07.032Z,5.07
2022-09-26T02:53:34.422Z,4.22
2022-09-26T02:56:10.591Z,7.22
2022-09-26T02:59:05.843Z,3.17
2022-09-26T03:01:56.507Z,6.00
2022-09-26T03:04:56.001Z,5.53
2022-09-26T03:07:41.022Z,8.55
2022-09-26T03:10:10.946Z,6.50
2022-09-26T03:12:39.351Z,8.40
2022-09-26T03:15:10.380Z,4.38
2022-09-26T03:17:42.618Z,7.35
2022-09-26T03:22:44.469Z,6.15
2022-09-26T03:25:16.723Z,8.93
2022-09-26T03:27:44.659Z,3.42
2022-09-26T03:30:15.010Z,4.35
2022-09-26T03:32:42.583Z,11.60
2022-09-26T03:35:11.340Z,7.15
2022-09-26T03:37:38.995Z,4.18
2022-09-26T03:40:09.420Z,5.95
2022-09-26T03:42:37.532Z,4.50
2022-09-26T03:45:08.603Z,7.68
2022-09-26T03:47:37.034Z,5.78
2022-09-26T03:50:05.588Z,3.70
2022-09-26T03:52:33.062Z,6.55
2022-09-26T03:55:00.609Z,4.80
2022-09-26T03:57:28.150Z,4.75
2022-09-26T03:59:56.038Z,6.90
2022-09-26T04:02:23.573Z,3.78
2022-09-26T04:04:51.058Z,4.88
2022-09-26T04:07:18.557Z,4.03
2022-09-26T04:09:46.021Z,4.82
2022-09-26T04:12:13.506Z,7.70
2022-09-26T04:14:43.381Z,6.80
2022-09-26T04:17:11.173Z,8.40
2022-09-26T04:19:38.623Z,5.35
2022-09-26T04:22:08.222Z,6.45
2022-09-26T04:24:35.645Z,7.05
2022-09-26T04:27:03.286Z,7.20
2022-09-26T04:29:30.757Z,6.93
2022-09-26T04:31:58.317Z,6.25
2022-09-26T04:34:27.412Z,4.07
2022-09-26T04:36:55.240Z,4.57
2022-09-26T04:39:23.106Z,8.60
2022-09-26T04:41:52.390Z,5.35
2022-09-26T04:44:19.926Z,6.63
2022-09-26T04:46:48.009Z,6.50
2022-09-26T04:49:15.573Z,4.10
2022-09-26T04:51:43.195Z,9.93
2022-09-26T04:54:10.648Z,10.02
2022-09-26T04:56:38.129Z,6.55
2022-09-26T04:59:05.572Z,9.13
2022-09-26T05:01:33.198Z,6.43
2022-09-26T05:04:00.780Z,6.45
2022-09-26T05:06:28.453Z,9.00
2022-09-26T05:08:56.273Z,6.70
2022-09-26T05:11:24.475Z,3.42
2022-09-26T05:13:53.894Z,6.25
2022-09-26T05:16:22.729Z,3.55
2022-09-26T05:18:54.774Z,7.75
2022-09-26T05:21:22.329Z,5.22
2022-09-26T05:24:07.083Z,5.72
2022-09-26T05:26:44.452Z,1.95
2022-09-26T05:29:12.844Z,2.20
2022-09-26T05:31:40.983Z,6.38
2022-09-26T05:34:15.479Z,1.92
2022-09-26T05:36:46.344Z,2.60
2022-09-26T05:39:30.128Z,4.53
2022-09-26T05:41:59.482Z,4.82
2022-09-26T05:44:27.578Z,6.47
2022-09-26T05:46:57.228Z,4.60
2022-09-26T05:49:25.162Z,3.97
2022-09-26T05:51:53.770Z,2.10
2022-09-26T05:54:21.445Z,3.80
2022-09-26T05:56:49.083Z,4.25
2022-09-26T05:59:16.708Z,5.20
2022-09-26T06:01:44.315Z,6.25
2022-09-26T06:04:12.100Z,8.68
2022-09-26T06:06:39.756Z,10.15
2022-09-26T06:09:08.045Z,4.70
2022-09-26T06:11:35.561Z,1.90
2022-09-26T06:14:03.119Z,2.92
2022-09-26T06:16:30.898Z,4.43
2022-09-26T06:18:58.636Z,4.93
2022-09-26T06:21:26.236Z,3.70
2022-09-26T06:23:53.710Z,4.95
2022-09-26T06:26:26.966Z,6.30
2022-09-26T06:28:58.219Z,6.75
2022-09-26T06:31:26.206Z,7.77
2022-09-26T06:33:55.224Z,3.33
2022-09-26T06:36:25.085Z,3.58
2022-09-26T06:38:54.938Z,6.57
2022-09-26T06:41:22.583Z,5.70
2022-09-26T06:43:50.223Z,4.32
2022-09-26T06:46:18.030Z,9.60
2022-09-26T06:48:45.542Z,4.68
2022-09-26T06:51:13.924Z,6.80
2022-09-26T06:53:42.603Z,2.42
2022-09-26T06:56:10.136Z,3.63
2022-09-26T06:58:40.851Z,2.75
2022-09-26T07:01:08.591Z,4.75
2022-09-26T07:03:38.625Z,7.35
2022-09-26T07:06:09.156Z,7.53
2022-09-26T07:09:00.850Z,5.13
2022-09-26T07:14:17.267Z,7.40
2022-09-26T07:19:13.501Z,7.25
2022-09-26T07:21:41.508Z,5.60
2022-09-26T07:24:13.954Z,4.90
2022-09-26T07:26:42.602Z,6.68
2022-09-26T07:29:12.335Z,5.40
2022-09-26T07:31:40.017Z,7.30
2022-09-26T07:34:08.614Z,3.20
2022-09-26T07:36:36.234Z,8.25
2022-09-26T07:39:03.711Z,3.88
2022-09-26T07:41:31.484Z,5.38
2022-09-26T07:47:04.968Z,6.60
2022-09-26T07:49:49.991Z,5.82
2022-09-26T07:52:18.475Z,4.40
2022-09-26T07:54:45.971Z,3.45
2022-09-26T07:57:14.859Z,4.78
2022-09-26T07:59:42.354Z,6.15
2022-09-26T08:02:29.182Z,5.05
2022-09-26T08:05:00.933Z,4.05
2022-09-26T08:07:29.205Z,5.28
2022-09-26T08:09:58.728Z,6.65
2022-09-26T08:12:27.883Z,5.80
2022-09-26T08:14:55.875Z,9.07
2022-09-26T08:17:23.385Z,4.57
2022-09-26T08:19:51.078Z,2.75
2022-09-26T08:22:18.588Z,3.60
2022-09-26T08:24:50.601Z,8.07
2022-09-26T08:27:19.263Z,5.47
2022-09-26T08:29:48.474Z,6.65
2022-09-26T08:32:21.212Z,5.78
2022-09-26T08:34:51.820Z,4.32
2022-09-26T08:37:20.999Z,5.07
2022-09-26T08:39:49.035Z,5.22
2022-09-26T08:42:23.936Z,5.63
2022-09-26T08:45:36.151Z,7.40
2022-09-26T08:48:15.056Z,4.07
2022-09-26T08:50:48.857Z,7.32
2022-09-26T08:53:46.690Z,7.72
2022-09-26T08:56:22.077Z,8.90
2022-09-26T08:58:54.058Z,7.93
2022-09-26T09:01:28.948Z,4.57
2022-09-26T09:04:08.643Z,5.93
2022-09-26T09:06:37.101Z,4.72
2022-09-26T09:09:04.722Z,7.72
2022-09-26T09:11:53.433Z,7.72
2022-09-26T09:14:39.647Z,5.88
2022-09-26T09:17:10.442Z,3.05
2022-09-26T09:19:48.740Z,14.00
2022-09-26T09:22:38.421Z,7.03
2022-09-26T09:25:17.715Z,8.77
2022-09-26T09:28:02.582Z,5.55
2022-09-26T09:30:40.442Z,4.25
2022-09-26T09:33:34.926Z,6.40
2022-09-26T09:36:02.525Z,7.63
2022-09-26T09:38:33.123Z,8.45
2022-09-26T09:41:24.104Z,6.82
2022-09-26T09:43:57.872Z,6.93
2022-09-26T09:46:39.537Z,8.25
2022-09-26T09:49:09.922Z,5.78
2022-09-26T09:51:48.114Z,6.70
2022-09-26T09:54:15.820Z,6.30
2022-09-26T09:56:58.284Z,8.40
2022-09-26T09:59:45.971Z,6.85
2022-09-26T10:02:21.010Z,6.63
2022-09-26T10:05:00.830Z,8.43
2022-09-26T10:07:28.375Z,6.38
2022-09-26T10:09:56.944Z,5.35
2022-09-26T10:12:30.763Z,8.98
2022-09-26T10:15:05.229Z,11.52
2022-09-26T10:17:32.860Z,5.53
2022-09-26T10:20:00.686Z,8.32
2022-09-26T10:22:37.413Z,5.63
2022-09-26T10:25:20.185Z,10.20
2022-09-26T10:27:50.157Z,6.75
2022-09-26T10:30:20.731Z,6.72
2022-09-26T10:32:56.108Z,4.32
2022-09-26T10:35:26.404Z,11.27
2022-09-26T10:37:56.650Z,4.20
2022-09-26T10:40:48.310Z,4.05
2022-09-26T10:43:28.825Z,7.55
2022-09-26T10:46:18.584Z,5.35
2022-09-26T10:48:57.264Z,8.57
2022-09-26T10:51:32.250Z,7.93
2022-09-26T10:54:05.686Z,7.10
2022-09-26T10:56:39.881Z,6.82
2022-09-26T10:59:10.992Z,7.40
2022-09-26T11:01:44.083Z,9.50
2022-09-26T11:04:36.135Z,5.40
2022-09-26T11:07:05.849Z,3.13
2022-09-26T11:09:33.527Z,5.15
2022-09-26T11:12:23.815Z,6.85
2022-09-26T11:14:56.883Z,5.63
2022-09-26T11:18:00.404Z,4.72
2022-09-26T11:20:32.345Z,3.45
2022-09-26T11:23:31.333Z,5.07
2022-09-26T11:26:15.194Z,5.60
2022-09-26T11:28:45.175Z,3.97
2022-09-26T11:31:25.680Z,2.50
2022-09-26T11:33:54.182Z,3.53
2022-09-26T11:36:36.001Z,3.90
2022-09-26T11:39:26.607Z,3.15
2022-09-26T11:42:05.248Z,5.35
2022-09-26T11:45:04.174Z,3.53
2022-09-26T11:48:08.939Z,3.35
2022-09-26T11:51:31.515Z,2.35
2022-09-26T11:54:23.566Z,2.85
2022-09-26T11:57:12.601Z,7.15
2022-09-26T12:00:02.768Z,3.83
2022-09-26T12:02:54.226Z,5.60
2022-09-26T12:05:39.799Z,4.97
2022-09-26T12:08:29.401Z,6.07
2022-09-26T12:11:06.973Z,6.93
2022-09-26T12:13:45.297Z,3.75
2022-09-26T12:16:32.930Z,9.13
2022-09-26T12:19:28.164Z,5.82
2022-09-26T12:22:49.290Z,5.00
2022-09-26T12:25:37.193Z,2.65
2022-09-26T12:28:20.404Z,5.13
2022-09-26T12:31:05.230Z,5.07
2022-09-26T12:33:59.259Z,5.10
2022-09-26T12:36:47.334Z,3.00
2022-09-26T12:39:39.694Z,4.35
2022-09-26T12:42:16.337Z,3.50
2022-09-26T12:45:21.998Z,4.40
2022-09-26T12:48:01.353Z,4.18
2022-09-26T12:50:54.473Z,6.32
2022-09-26T12:53:53.263Z,3.35
2022-09-26T12:56:39.252Z,3.55
2022-09-26T12:59:15.921Z,4.57
2022-09-26T13:01:50.091Z,3.33
2022-09-26T13:04:48.763Z,3.35
2022-09-26T13:07:43.874Z,4.63
2022-09-26T13:10:11.511Z,6.20
2022-09-26T13:13:04.025Z,3.63
2022-09-26T13:16:00.290Z,3.05
2022-09-26T13:18:44.762Z,3.47
2022-09-26T13:21:22.054Z,3.28
2022-09-26T13:23:59.739Z,2.00
2022-09-26T13:26:32.004Z,2.65
2022-09-26T13:31:58.747Z,3.30
2022-09-26T13:34:42.847Z,3.78
2022-09-26T13:37:28.866Z,5.10
2022-09-26T13:40:16.313Z,1.67
2022-09-26T13:43:00.747Z,1.52
2022-09-26T13:45:56.198Z,3.05
2022-09-26T13:48:51.850Z,3.15
2022-09-26T13:51:30.342Z,2.63
2022-09-26T13:54:16.720Z,1.98
2022-09-26T13:56:47.517Z,4.78
2022-09-26T13:59:15.564Z,2.42
2022-09-26T14:02:18.843Z,5.28
2022-09-26T14:04:48.181Z,4.25
2022-09-26T14:08:02.447Z,2.80
2022-09-26T14:10:34.692Z,3.08
2022-09-26T14:16:01.289Z,2.60
2022-09-26T14:18:48.224Z,4.05
2022-09-26T14:21:29.061Z,3.78
2022-09-26T14:24:35.787Z,7.47
2022-09-26T14:27:12.563Z,5.35
2022-09-26T14:29:40.034Z,2.80
2022-09-26T14:32:10.619Z,3.95
2022-09-26T14:34:57.314Z,4.05
2022-09-26T14:37:24.878Z,3.28
2022-09-26T14:40:01.577Z,3.30
2022-09-26T14:42:34.653Z,9.45
2022-09-26T14:45:21.255Z,9.05
2022-09-26T14:48:16.287Z,8.38
2022-09-26T14:50:57.313Z,13.15
2022-09-26T14:53:54.050Z,11.23
2022-09-26T14:56:29.211Z,8.25
2022-09-26T14:59:40.015Z,4.85
2022-09-26T15:02:26.029Z,5.90
2022-09-26T15:05:06.769Z,4.13
2022-09-26T15:07:47.029Z,4.28
2022-09-26T15:10:14.637Z,9.48
2022-09-26T15:12:58.252Z,6.28
2022-09-26T15:15:37.556Z,11.88
2022-09-26T15:18:25.010Z,8.65
2022-09-26T15:21:04.218Z,5.90
2022-09-26T15:23:45.414Z,9.93
2022-09-26T15:26:13.454Z,9.57
2022-09-26T15:28:41.082Z,8.05
2022-09-26T15:31:27.005Z,8.25
2022-09-26T15:34:02.786Z,9.35
2022-09-26T15:36:36.518Z,9.52
2022-09-26T15:39:30.388Z,8.23
2022-09-26T15:42:20.268Z,7.20
2022-09-26T15:44:54.679Z,7.57
2022-09-26T15:47:43.077Z,8.55
2022-09-26T15:50:17.302Z,8.68
2022-09-26T15:52:50.505Z,9.35
2022-09-26T15:55:28.235Z,8.90
2022-09-26T15:58:00.061Z,12.02
2022-09-26T16:00:33.090Z,11.57
2022-09-26T16:03:40.961Z,11.75
2022-09-26T16:06:21.019Z,14.38
2022-09-26T16:08:53.309Z,9.63
2022-09-26T16:13:51.296Z,9.95
2022-09-26T16:16:24.499Z,16.20
2022-09-26T16:19:02.947Z,10.35
2022-09-26T16:21:34.032Z,13.65
2022-09-26T16:24:23.334Z,15.57
2022-09-26T16:26:53.435Z,8.82
2022-09-26T16:29:36.196Z,15.15
2022-09-26T16:32:06.767Z,11.45
2022-09-26T16:34:34.380Z,12.35
2022-09-26T16:37:01.914Z,11.07
2022-09-26T16:39:32.417Z,10.35
2022-09-26T16:42:03.395Z,10.60
2022-09-26T16:44:40.340Z,12.40
2022-09-26T16:47:29.808Z,14.85
2022-09-26T16:49:57.409Z,14.55
2022-09-26T16:52:36.370Z,20.52
2022-09-26T16:55:06.969Z,13.95
2022-09-26T16:57:38.229Z,16.48
2022-09-26T17:00:32.755Z,17.90
2022-09-26T17:03:00.324Z,11.73
2022-09-26T17:05:27.858Z,8.65
2022-09-26T17:07:55.313Z,15.73
2022-09-26T17:10:26.292Z,15.13
2022-09-26T17:12:54.129Z,15.18
2022-09-26T17:15:29.248Z,15.25
2022-09-26T17:17:57.705Z,15.70
2022-09-26T17:20:26.914Z,11.18
2022-09-26T17:22:54.735Z,12.70
2022-09-26T17:25:25.124Z,8.82
2022-09-26T17:27:57.565Z,23.73
2022-09-26T17:30:25.125Z,14.48
2022-09-26T17:32:54.406Z,12.15
2022-09-26T17:35:32.258Z,11.20
2022-09-26T17:38:00.799Z,9.30
2022-09-26T17:40:33.524Z,14.40
2022-09-26T17:43:01.963Z,12.93
2022-09-26T17:45:35.519Z,12.95
2022-09-26T17:48:06.603Z,17.23
2022-09-26T17:50:35.727Z,15.85
2022-09-26T17:53:04.090Z,11.82
2022-09-26T17:55:32.357Z,13.07
2022-09-26T17:58:00.325Z,17.67
2022-09-26T18:00:33.059Z,12.63
2022-09-26T18:03:04.297Z,8.50
2022-09-26T18:05:35.499Z,15.97
2022-09-26T18:08:16.208Z,5.30
2022-09-26T18:10:50.156Z,10.65
2022-09-26T18:13:25.068Z,11.38
2022-09-26T18:15:58.613Z,5.90
2022-09-26T18:18:29.209Z,4.70
2022-09-26T18:20:58.720Z,7.43
2022-09-26T18:23:29.741Z,12.57
2022-09-26T18:25:59.315Z,8.93
2022-09-26T18:28:27.259Z,10.55
2022-09-26T18:30:59.135Z,9.07
2022-09-26T18:33:28.849Z,11.90
2022-09-26T18:35:56.518Z,11.43
2022-09-26T18:38:24.091Z,8.02
2022-09-26T18:40:58.278Z,12.68
2022-09-26T18:43:29.458Z,7.35
2022-09-26T18:45:57.580Z,7.82
2022-09-26T18:48:32.664Z,10.10
2022-09-26T18:51:01.159Z,7.07
2022-09-26T18:53:34.773Z,8.30
2022-09-26T18:56:20.211Z,14.88
2022-09-26T18:58:48.404Z,14.48
2022-09-26T19:01:34.096Z,8.60
2022-09-26T19:04:05.702Z,9.10
2022-09-26T19:06:37.456Z,11.88
2022-09-26T19:09:13.825Z,8.38
2022-09-26T19:11:41.431Z,6.25
2022-09-26T19:14:16.248Z,7.85
2022-09-26T19:16:48.952Z,11.00
2022-09-26T19:19:17.475Z,6.47
2022-09-26T19:21:48.626Z,10.82
2022-09-26T19:24:22.538Z,12.32
2022-09-26T19:26:54.156Z,16.45
2022-09-26T19:29:41.990Z,4.82
2022-09-26T19:32:21.130Z,10.20
2022-09-26T19:35:02.278Z,7.00
2022-09-26T19:37:29.894Z,5.57
2022-09-26T19:39:58.409Z,4.22
2022-09-26T19:42:27.182Z,4.43
2022-09-26T19:44:56.038Z,4.20
2022-09-26T19:47:24.592Z,4.63
2022-09-26T19:49:53.545Z,5.45
2022-09-26T19:52:22.086Z,5.10
2022-09-26T19:54:50.153Z,3.60
2022-09-26T19:57:20.062Z,6.90
2022-09-26T19:59:48.432Z,3.42
2022-09-26T20:02:21.648Z,3.60
2022-09-26T20:04:49.552Z,6.13
2022-09-26T20:07:19.599Z,2.95
2022-09-26T20:09:48.166Z,2.85
2022-09-26T20:12:15.891Z,5.93
2022-09-26T20:14:43.442Z,8.02
2022-09-26T20:17:13.911Z,10.25
2022-09-26T20:19:45.834Z,8.20
2022-09-26T20:22:17.311Z,7.35
2022-09-26T20:24:48.102Z,3.25
2022-09-26T20:27:19.687Z,6.97
2022-09-26T20:30:06.283Z,4.15
2022-09-26T20:32:34.404Z,7.45
2022-09-26T20:35:02.201Z,7.55
2022-09-26T20:37:32.647Z,7.18
2022-09-26T20:40:01.682Z,8.18
2022-09-26T20:42:36.370Z,6.28
2022-09-26T20:45:04.102Z,7.18
2022-09-26T20:47:32.138Z,11.23
2022-09-26T20:50:02.116Z,6.68
2022-09-26T20:52:30.965Z,8.85
2022-09-26T20:54:58.534Z,13.52
2022-09-26T20:57:26.086Z,6.35
2022-09-26T20:59:53.550Z,6.80
2022-09-26T21:02:36.921Z,10.25
2022-09-26T21:05:12.157Z,12.88
2022-09-26T21:07:39.631Z,6.78
2022-09-26T21:10:26.645Z,7.00
2022-09-26T21:12:54.546Z,8.48
2022-09-26T21:15:23.651Z,5.35
2022-09-26T21:17:52.858Z,7.97
2022-09-26T21:20:32.187Z,14.35
2022-09-26T21:23:02.319Z,4.68
2022-09-26T21:25:32.277Z,9.45
2022-09-26T21:28:02.976Z,10.40
2022-09-26T21:30:31.510Z,10.48
2022-09-26T21:33:00.763Z,10.65
2022-09-26T21:35:33.177Z,8.70
2022-09-26T21:38:01.922Z,6.20
2022-09-26T21:40:32.500Z,9.00
2022-09-26T21:43:06.903Z,5.35
2022-09-26T21:45:34.735Z,8.07
2022-09-26T21:48:02.344Z,5.68
2022-09-26T21:50:30.282Z,10.05
2022-09-26T21:53:04.331Z,4.32
2022-09-26T21:55:35.619Z,8.30
2022-09-26T21:58:09.100Z,5.57
2022-09-26T22:00:36.559Z,6.47
2022-09-26T22:03:04.074Z,1.75
2022-09-26T22:05:31.979Z,2.50
2022-09-26T22:07:59.690Z,3.20
2022-09-26T22:10:27.979Z,10.32
2022-09-26T22:12:55.442Z,2.90
2022-09-26T22:15:22.990Z,7.20
2022-09-26T22:17:50.601Z,7.15
2022-09-26T22:20:18.371Z,8.38
2022-09-26T22:22:45.838Z,5.30
2022-09-26T22:25:13.326Z,10.68
2022-09-26T22:27:41.267Z,3.42
2022-09-26T22:30:09.747Z,5.55
2022-09-26T22:32:37.233Z,5.00
2022-09-26T22:35:05.671Z,4.88
2022-09-26T22:37:33.714Z,4.25
2022-09-26T22:40:01.180Z,6.55
2022-09-26T22:42:28.630Z,2.38
2022-09-26T22:44:56.058Z,5.05
2022-09-26T22:47:23.570Z,3.22
2022-09-26T22:49:51.617Z,1.10
2022-09-26T22:52:19.082Z,5.80
2022-09-26T22:54:46.606Z,2.08
2022-09-26T22:57:14.075Z,8.40
2022-09-26T22:59:41.596Z,2.53
2022-09-26T23:02:09.275Z,5.65
2022-09-26T23:04:48.592Z,2.13
2022-09-26T23:07:18.594Z,5.63
2022-09-26T23:09:46.106Z,5.78
2022-09-26T23:12:14.146Z,2.83
2022-09-26T23:14:41.704Z,2.78
2022-09-26T23:17:09.362Z,4.38
2022-09-26T23:19:37.258Z,3.80
2022-09-26T23:22:05.249Z,5.55
2022-09-26T23:24:32.782Z,4.07
2022-09-26T23:27:00.913Z,1.88
2022-09-26T23:29:28.390Z,1.67
2022-09-26T23:31:56.011Z,4.32
2022-09-26T23:34:23.479Z,3.20
2022-09-26T23:36:50.935Z,3.65
2022-09-26T23:39:18.882Z,5.78
2022-09-26T23:41:46.493Z,3.30
2022-09-26T23:44:13.941Z,7.63
2022-09-26T23:46:41.540Z,6.93
2022-09-26T23:49:09.077Z,6.22
2022-09-26T23:51:36.538Z,4.05
2022-09-26T23:54:04.030Z,3.65
2022-09-26T23:56:31.497Z,2.42
2022-09-26T23:58:58.970Z,2.85
